createdAt,value
2019-02-22T00:00:24.601Z,37.20
2019-02-22T00:05:28.365Z,37.70
2019-02-22T00:10:32.112Z,37.20
2019-02-22T00:15:36.420Z,37.20
2019-02-22T00:20:41.267Z,37.10
2019-02-22T00:25:48.305Z,37.10
2019-02-22T00:30:52.047Z,37.20
2019-02-22T00:35:55.909Z,37.10
2019-02-22T00:41:00.017Z,37.20
2019-02-22T00:46:03.865Z,37.20
2019-02-22T00:51:07.631Z,37.20
2019-02-22T00:56:11.519Z,37.20
2019-02-22T01:01:15.267Z,37.20
2019-02-22T01:06:18.954Z,37.20
2019-02-22T01:11:22.741Z,37.20
2019-02-22T01:16:26.518Z,37.20
2019-02-22T01:21:30.584Z,37.10
2019-02-22T01:26:34.290Z,37.20
2019-02-22T01:31:37.976Z,37.20
2019-02-22T01:36:41.954Z,37.10
2019-02-22T01:41:47.097Z,37.20
2019-02-22T01:46:52.528Z,37.10
2019-02-22T01:51:56.301Z,37.20
2019-02-22T01:57:00.099Z,37.20
2019-02-22T02:02:03.782Z,37.20
2019-02-22T02:07:07.475Z,37.20
2019-02-22T02:12:11.166Z,37.20
2019-02-22T02:17:14.880Z,37.20
2019-02-22T02:22:37.855Z,37.20
2019-02-22T02:27:44.271Z,37.10
2019-02-22T02:32:47.995Z,37.20
2019-02-22T02:37:51.710Z,37.20
2019-02-22T02:42:55.931Z,37.20
2019-02-22T02:47:59.653Z,37.20
2019-02-22T02:53:03.392Z,37.20
2019-02-22T02:58:07.117Z,37.20
2019-02-22T03:03:10.814Z,37.20
2019-02-22T03:08:14.783Z,37.20
2019-02-22T03:13:18.584Z,37.20
2019-02-22T03:18:22.286Z,37.20
2019-02-22T03:23:26.230Z,37.20
2019-02-22T03:28:30.976Z,37.20
2019-02-22T03:33:34.665Z,37.20
2019-02-22T03:38:38.408Z,37.10
2019-02-22T03:43:42.127Z,37.20
2019-02-22T03:48:45.848Z,37.20
2019-02-22T03:53:57.515Z,37.80
2019-02-22T03:59:01.076Z,37.20
2019-02-22T04:04:04.873Z,37.10
2019-02-22T04:09:11.567Z,37.10
2019-02-22T04:14:16.588Z,37.20
2019-02-22T04:19:20.277Z,37.30
2019-02-22T04:24:24.102Z,37.20
2019-02-22T04:29:29.180Z,37.30
2019-02-22T04:34:32.900Z,37.40
2019-02-22T04:39:36.636Z,37.40
2019-02-22T04:44:40.686Z,37.50
2019-02-22T04:49:44.354Z,37.50
2019-02-22T04:54:48.616Z,37.60
2019-02-22T04:59:52.585Z,37.60
2019-02-22T05:04:56.337Z,37.50
2019-02-22T05:10:00.100Z,37.60
2019-02-22T05:15:12.591Z,37.60
2019-02-22T05:20:09.817Z,37.50
2019-02-22T05:25:16.982Z,37.50
2019-02-22T05:30:20.763Z,37.50
2019-02-22T05:35:24.455Z,37.70
2019-02-22T05:40:30.105Z,37.90
2019-02-22T05:45:33.792Z,38.40
2019-02-22T05:50:38.210Z,38.50
2019-02-22T05:55:44.318Z,38.40
2019-02-22T06:00:47.787Z,38.20
2019-02-22T06:05:51.580Z,38.00
2019-02-22T06:10:55.517Z,37.80
2019-02-22T06:15:59.679Z,37.60
2019-02-22T06:21:03.539Z,37.40
2019-02-22T06:26:10.183Z,37.20
2019-02-22T06:31:14.377Z,37.10
2019-02-22T06:36:18.439Z,36.90
2019-02-22T06:41:22.229Z,36.90
2019-02-22T06:46:45.522Z,36.80
2019-02-22T06:51:50.647Z,36.70
2019-02-22T06:56:54.987Z,36.60
2019-02-22T07:01:58.748Z,36.60
2019-02-22T07:07:02.750Z,36.50
2019-02-22T07:12:10.911Z,36.50
2019-02-22T07:17:14.722Z,36.40
2019-02-22T07:22:18.586Z,36.30
2019-02-22T07:27:22.729Z,36.20
2019-02-22T07:32:26.574Z,36.10
2019-02-22T07:37:30.391Z,36.10
2019-02-22T07:42:34.374Z,36.00
2019-02-22T07:47:38.111Z,36.10
2019-02-22T07:52:44.562Z,35.90
2019-02-22T07:57:47.703Z,35.80
2019-02-22T08:02:51.523Z,35.70
2019-02-22T08:07:58.216Z,35.60
2019-02-22T08:13:02.097Z,35.40
2019-02-22T08:18:05.806Z,35.30
2019-02-22T08:23:28.858Z,35.20
2019-02-22T08:28:32.624Z,35.10
2019-02-22T08:33:36.384Z,35.20
2019-02-22T08:38:40.097Z,35.10
2019-02-22T08:43:44.123Z,35.10
2019-02-22T08:48:48.046Z,35.00
2019-02-22T08:53:51.985Z,35.00
2019-02-22T08:58:55.816Z,34.90
2019-02-22T09:04:01.432Z,34.80
2019-02-22T09:09:06.802Z,34.80
2019-02-22T09:14:10.527Z,34.70
2019-02-22T09:19:17.278Z,34.60
2019-02-22T09:24:21.253Z,34.50
2019-02-22T09:29:25.007Z,34.50
2019-02-22T09:34:28.833Z,34.40
2019-02-22T09:39:32.560Z,34.30
2019-02-22T09:44:36.312Z,34.20
2019-02-22T09:49:40.393Z,34.10
2019-02-22T09:54:44.362Z,34.00
2019-02-22T09:59:48.200Z,34.00
2019-02-22T10:04:55.493Z,33.90
2019-02-22T10:09:57.889Z,33.80
2019-02-22T10:15:01.714Z,33.70
2019-02-22T10:20:05.896Z,33.60
2019-02-22T10:25:10.419Z,33.60
2019-02-22T10:30:14.325Z,33.40
2019-02-22T10:35:18.229Z,33.30
2019-02-22T10:40:22.036Z,33.20
2019-02-22T10:45:25.809Z,33.20
2019-02-22T10:50:29.599Z,33.10
2019-02-22T10:55:33.277Z,33.00
2019-02-22T11:00:37.177Z,32.90
2019-02-22T11:05:40.863Z,32.90
2019-02-22T11:10:44.857Z,32.80
2019-02-22T11:15:48.589Z,32.80
2019-02-22T11:20:52.328Z,32.80
2019-02-22T11:25:57.962Z,32.70
2019-02-22T11:31:01.736Z,32.70
2019-02-22T11:36:05.654Z,32.70
2019-02-22T11:41:09.702Z,33.30
2019-02-22T11:46:16.594Z,33.00
2019-02-22T11:51:21.003Z,32.60
2019-02-22T11:56:27.669Z,32.70
2019-02-22T12:01:34.531Z,32.50
2019-02-22T12:06:38.437Z,32.60
2019-02-22T12:11:44.259Z,32.50
2019-02-22T12:16:48.094Z,32.50
2019-02-22T12:21:51.993Z,32.50
2019-02-22T12:27:01.004Z,32.40
2019-02-22T12:32:04.917Z,32.30
2019-02-22T12:37:09.465Z,32.20
2019-02-22T12:42:13.314Z,32.20
2019-02-22T12:47:17.192Z,32.20
2019-02-22T12:52:23.282Z,32.10
2019-02-22T12:57:27.012Z,32.00
2019-02-22T13:02:42.857Z,32.00
2019-02-22T13:07:47.391Z,31.90
2019-02-22T13:12:52.246Z,31.80
2019-02-22T13:17:57.308Z,31.80
2019-02-22T13:23:03.374Z,31.80
2019-02-22T13:28:07.156Z,31.70
2019-02-22T13:33:10.949Z,31.60
2019-02-22T13:38:17.875Z,31.60
2019-02-22T13:43:23.475Z,31.60
2019-02-22T13:48:46.527Z,31.60
2019-02-22T13:53:50.363Z,31.50
2019-02-22T13:58:54.299Z,31.50
2019-02-22T14:03:58.427Z,31.40
2019-02-22T14:09:02.253Z,31.40
2019-02-22T14:14:06.249Z,31.50
2019-02-22T14:19:10.261Z,31.40
2019-02-22T14:24:14.482Z,31.40
2019-02-22T14:29:18.218Z,31.40
2019-02-22T14:34:22.178Z,31.40
2019-02-22T14:39:27.830Z,31.40
2019-02-22T14:44:31.735Z,31.30
2019-02-22T14:49:35.555Z,31.30
2019-02-22T14:54:43.150Z,31.30
2019-02-22T14:59:47.920Z,31.20
2019-02-22T15:04:51.853Z,31.20
2019-02-22T15:09:55.653Z,31.10
2019-02-22T15:14:59.453Z,31.10
2019-02-22T15:20:03.534Z,31.10
2019-02-22T15:25:08.840Z,31.10
2019-02-22T15:30:12.694Z,31.00
2019-02-22T15:35:17.324Z,31.10
2019-02-22T15:40:21.058Z,31.10
2019-02-22T15:45:25.063Z,31.10
2019-02-22T15:50:28.854Z,31.10
2019-02-22T15:55:32.608Z,31.10
2019-02-22T16:00:36.425Z,31.00
2019-02-22T16:05:42.332Z,31.00
2019-02-22T16:10:47.065Z,31.00
2019-02-22T16:15:51.033Z,31.00
2019-02-22T16:20:54.744Z,30.90
2019-02-22T16:25:58.420Z,30.90
2019-02-22T16:31:02.244Z,30.80
2019-02-22T16:36:07.223Z,30.80
2019-02-22T16:41:11.210Z,30.70
2019-02-22T16:46:15.326Z,30.80
2019-02-22T16:51:19.161Z,30.70
2019-02-22T16:56:25.108Z,30.60
2019-02-22T17:01:28.966Z,30.60
2019-02-22T17:06:33.055Z,30.50
2019-02-22T17:11:37.400Z,30.40
2019-02-22T17:16:45.892Z,30.50
2019-02-22T17:21:46.604Z,30.50
2019-02-22T17:26:50.516Z,30.40
2019-02-22T17:32:00.144Z,30.30
2019-02-22T17:37:04.202Z,30.20
2019-02-22T17:42:10.512Z,30.20
2019-02-22T17:47:16.069Z,30.20
2019-02-22T17:52:19.812Z,30.20
2019-02-22T17:57:23.520Z,30.20
2019-02-22T18:02:29.594Z,30.20
2019-02-22T18:07:37.588Z,30.20
2019-02-22T18:12:39.226Z,30.10
2019-02-22T18:17:43.448Z,30.10
2019-02-22T18:22:51.128Z,30.00
2019-02-22T18:27:54.811Z,30.00
2019-02-22T18:32:58.935Z,30.00
2019-02-22T18:38:02.793Z,30.00
2019-02-22T18:43:06.866Z,30.00
2019-02-22T18:48:10.751Z,30.00
2019-02-22T18:53:14.495Z,30.00
2019-02-22T18:58:18.279Z,30.00
2019-02-22T19:03:22.044Z,29.90
2019-02-22T19:08:32.434Z,29.90
2019-02-22T19:13:31.919Z,29.90
2019-02-22T19:18:37.346Z,29.80
2019-02-22T19:23:41.213Z,29.80
2019-02-22T19:28:44.936Z,29.70
2019-02-22T19:33:49.970Z,29.70
2019-02-22T19:38:54.047Z,29.70
2019-02-22T19:43:59.751Z,29.60
2019-02-22T19:49:03.997Z,29.50
2019-02-22T19:54:07.823Z,29.50
2019-02-22T19:59:13.441Z,29.50
2019-02-22T20:04:17.874Z,30.10
2019-02-22T20:09:21.686Z,29.80
2019-02-22T20:14:25.471Z,29.80
2019-02-22T20:19:29.481Z,30.00
2019-02-22T20:24:33.629Z,29.90
2019-02-22T20:29:38.779Z,29.90
2019-02-22T20:34:42.847Z,29.90
2019-02-22T20:39:47.016Z,29.80
2019-02-22T20:44:51.826Z,29.80
2019-02-22T20:49:56.287Z,29.60
2019-02-22T20:55:00.316Z,29.50
2019-02-22T21:00:04.762Z,29.50
2019-02-22T21:05:10.938Z,29.50
2019-02-22T21:10:17.434Z,29.50
2019-02-22T21:15:21.438Z,29.50
2019-02-22T21:20:32.111Z,29.60
2019-02-22T21:25:35.942Z,29.50
2019-02-22T21:30:39.655Z,29.50
2019-02-22T21:35:43.381Z,29.40
2019-02-22T21:40:48.238Z,29.40
2019-02-22T21:45:52.219Z,29.40
2019-02-22T21:50:57.083Z,29.30
2019-02-22T21:56:00.857Z,29.30
2019-02-22T22:01:04.648Z,29.30
2019-02-22T22:06:08.569Z,29.30
2019-02-22T22:11:12.317Z,29.20
2019-02-22T22:16:16.614Z,29.20
2019-02-22T22:21:20.450Z,29.10
2019-02-22T22:26:24.277Z,29.10
2019-02-22T22:31:30.767Z,29.00
2019-02-22T22:36:33.664Z,29.00
2019-02-22T22:41:37.672Z,28.90
2019-02-22T22:46:41.475Z,29.00
2019-02-22T22:51:45.276Z,28.90
2019-02-22T22:56:48.976Z,28.90
2019-02-22T23:01:52.760Z,28.90
2019-02-22T23:06:56.573Z,28.80
2019-02-22T23:12:00.530Z,28.80
2019-02-22T23:17:04.871Z,28.80
2019-02-22T23:22:08.652Z,28.70
2019-02-22T23:27:14.563Z,28.70
2019-02-22T23:32:18.348Z,28.60
2019-02-22T23:37:22.235Z,28.60
2019-02-22T23:42:28.836Z,28.60
2019-02-22T23:47:32.687Z,28.60
2019-02-22T23:52:36.446Z,28.50
2019-02-22T23:57:40.173Z,28.50
